createdAt,value
2023-03-21T00:00:43.763Z,99814.06
2023-03-21T00:03:10.591Z,99792.56
2023-03-21T00:05:42.497Z,99815.59
2023-03-21T00:08:09.787Z,99822.25
2023-03-21T00:10:43.786Z,99796.88
2023-03-21T00:13:15.814Z,99817.66
2023-03-21T00:18:43.027Z,99785.06
2023-03-21T00:24:00.889Z,99761.69
2023-03-21T00:26:28.162Z,99758.31
2023-03-21T00:28:54.887Z,99743.66
2023-03-21T00:31:21.726Z,99757.19
2023-03-21T00:33:48.618Z,99746.97
2023-03-21T00:36:16.200Z,99762.25
2023-03-21T00:38:43.161Z,99713.88
2023-03-21T00:41:23.270Z,99756.03
2023-03-21T00:43:55.784Z,99737.63
2023-03-21T00:46:25.121Z,99746.03
2023-03-21T00:48:52.253Z,99733.91
2023-03-21T00:51:26.160Z,99706.63
2023-03-21T00:53:57.661Z,99695.97
2023-03-21T00:56:24.693Z,99701.31
2023-03-21T00:58:51.418Z,99714.13
2023-03-21T01:01:18.841Z,99713.78
2023-03-21T01:03:48.286Z,99712.66
2023-03-21T01:06:19.713Z,99643.72
2023-03-21T01:08:52.732Z,99701.06
2023-03-21T01:11:23.137Z,99701.19
2023-03-21T01:13:56.215Z,99693.59
2023-03-21T01:16:26.474Z,99657.97
2023-03-21T01:18:53.296Z,99657.97
2023-03-21T01:21:20.065Z,99659.94
2023-03-21T01:23:46.921Z,99654.03
2023-03-21T01:26:13.854Z,99633.66
2023-03-21T01:28:42.168Z,99662.66
2023-03-21T01:31:11.574Z,99607.16
2023-03-21T01:33:38.792Z,99641.22
2023-03-21T01:36:13.053Z,99659.91
2023-03-21T01:38:41.716Z,99656.75
2023-03-21T01:41:41.655Z,99638.94
2023-03-21T01:44:19.964Z,99619.63
2023-03-21T01:47:03.977Z,99641.16
2023-03-21T01:49:41.072Z,99607.94
2023-03-21T01:52:21.003Z,99639.47
2023-03-21T01:54:52.693Z,99579.69
2023-03-21T01:57:41.243Z,99595.16
2023-03-21T02:00:13.065Z,99596.53
2023-03-21T02:02:58.252Z,99591.59
2023-03-21T02:05:50.939Z,99614.28
2023-03-21T02:08:18.388Z,99591.91
2023-03-21T02:10:50.596Z,99536.69
2023-03-21T02:13:17.715Z,99595.22
2023-03-21T02:15:58.252Z,99598.91
2023-03-21T02:18:28.197Z,99595.28
2023-03-21T02:21:13.529Z,99589.47
2023-03-21T02:24:10.740Z,99583.75
2023-03-21T02:27:04.101Z,99512.59
2023-03-21T02:29:43.341Z,99578.88
2023-03-21T02:32:20.237Z,99568.28
2023-03-21T02:35:00.939Z,99566.78
2023-03-21T02:37:40.307Z,99560.03
2023-03-21T02:40:39.814Z,99559.13
2023-03-21T02:43:23.506Z,99520.09
2023-03-21T02:45:57.615Z,99553.72
2023-03-21T02:49:07.074Z,99518.41
2023-03-21T02:51:35.985Z,99492.47
2023-03-21T02:54:29.975Z,99540.44
2023-03-21T02:56:58.329Z,99498.59
2023-03-21T02:59:27.132Z,99523.53
2023-03-21T03:01:56.389Z,99523.88
2023-03-21T03:04:27.513Z,99525.59
2023-03-21T03:07:15.818Z,99517.22
2023-03-21T03:09:59.956Z,99513.63
2023-03-21T03:13:00.610Z,99474.00
2023-03-21T03:15:51.881Z,99499.31
2023-03-21T03:18:33.762Z,99497.47
2023-03-21T03:21:11.187Z,99487.53
2023-03-21T03:24:07.017Z,99427.31
2023-03-21T03:26:37.649Z,99471.66
2023-03-21T03:29:08.949Z,99421.41
2023-03-21T03:31:46.432Z,99475.81
2023-03-21T03:34:20.730Z,99471.03
2023-03-21T03:36:56.321Z,99446.81
2023-03-21T03:39:33.854Z,99436.66
2023-03-21T03:42:21.478Z,99468.97
2023-03-21T03:44:52.824Z,99429.72
2023-03-21T03:47:56.363Z,99393.00
2023-03-21T03:50:41.637Z,99450.78
2023-03-21T03:53:18.595Z,99449.44
2023-03-21T03:55:46.222Z,99456.00
2023-03-21T03:58:22.915Z,99409.13
2023-03-21T04:00:52.392Z,99441.94
2023-03-21T04:03:19.194Z,99364.94
2023-03-21T04:05:48.641Z,99433.50
2023-03-21T04:08:16.505Z,99412.06
2023-03-21T04:10:43.922Z,99387.63
2023-03-21T04:13:11.270Z,99405.44
2023-03-21T04:15:38.220Z,99354.19
2023-03-21T04:18:05.040Z,99412.75
2023-03-21T04:20:36.974Z,99378.69
2023-03-21T04:23:05.602Z,99374.41
2023-03-21T04:25:38.620Z,99386.13
2023-03-21T04:28:07.268Z,99381.31
2023-03-21T04:30:34.317Z,99382.06
2023-03-21T04:33:01.341Z,99383.53
2023-03-21T04:35:28.682Z,99365.47
2023-03-21T04:37:55.964Z,99389.00
2023-03-21T04:40:24.808Z,99385.47
2023-03-21T04:42:51.704Z,99392.28
2023-03-21T04:45:18.385Z,99340.78
2023-03-21T04:47:45.550Z,99376.75
2023-03-21T04:50:13.850Z,99324.94
2023-03-21T04:52:40.745Z,99313.59
2023-03-21T04:55:10.635Z,99363.38
2023-03-21T04:57:38.594Z,99323.91
2023-03-21T05:00:10.795Z,99315.47
2023-03-21T05:02:38.851Z,99349.34
2023-03-21T05:05:07.068Z,99307.47
2023-03-21T05:07:33.875Z,99290.38
2023-03-21T05:10:02.409Z,99326.38
2023-03-21T05:12:29.518Z,99315.00
2023-03-21T05:14:56.355Z,99298.22
2023-03-21T05:17:28.577Z,99322.19
2023-03-21T05:19:56.645Z,99319.91
2023-03-21T05:22:26.930Z,99311.63
2023-03-21T05:24:55.421Z,99298.03
2023-03-21T05:27:35.837Z,99303.41
2023-03-21T05:30:11.773Z,99276.22
2023-03-21T05:32:38.948Z,99283.44
2023-03-21T05:35:06.420Z,99275.31
2023-03-21T05:37:33.231Z,99306.59
2023-03-21T05:40:00.059Z,99239.63
2023-03-21T05:42:26.861Z,99251.34
2023-03-21T05:44:53.737Z,99251.22
2023-03-21T05:47:20.612Z,99265.13
2023-03-21T05:49:47.470Z,99250.81
2023-03-21T05:52:14.269Z,99248.09
2023-03-21T05:54:41.184Z,99202.59
2023-03-21T05:57:08.506Z,99275.19
2023-03-21T05:59:35.491Z,99223.88
2023-03-21T06:02:02.371Z,99214.63
2023-03-21T06:04:29.349Z,99234.03
2023-03-21T06:06:57.885Z,99226.56
2023-03-21T06:09:26.195Z,99246.69
2023-03-21T06:11:55.707Z,99239.88
2023-03-21T06:14:23.984Z,99214.22
2023-03-21T06:16:51.206Z,99183.50
2023-03-21T06:19:17.964Z,99171.13
2023-03-21T06:21:44.730Z,99216.94
2023-03-21T06:24:11.561Z,99191.69
2023-03-21T06:26:38.428Z,99229.81
2023-03-21T06:29:05.447Z,99264.25
2023-03-21T06:31:32.254Z,99234.88
2023-03-21T06:33:58.988Z,99260.72
2023-03-21T06:36:25.804Z,99246.41
2023-03-21T06:38:52.650Z,99274.47
2023-03-21T06:41:19.493Z,99231.44
2023-03-21T06:43:46.403Z,99230.72
2023-03-21T06:46:13.115Z,99185.97
2023-03-21T06:48:44.541Z,99246.53
2023-03-21T06:51:12.874Z,99265.97
2023-03-21T06:53:39.836Z,99208.75
2023-03-21T06:56:06.856Z,99252.59
2023-03-21T06:58:33.562Z,99223.38
2023-03-21T07:01:01.839Z,99216.09
2023-03-21T07:03:29.253Z,99222.00
2023-03-21T07:05:56.247Z,99216.66
2023-03-21T07:08:23.032Z,99233.13
2023-03-21T07:10:49.937Z,99243.00
2023-03-21T07:13:16.787Z,99249.41
2023-03-21T07:15:43.515Z,99220.28
2023-03-21T07:18:10.493Z,99208.34
2023-03-21T07:20:38.243Z,99221.53
2023-03-21T07:23:05.854Z,99213.41
2023-03-21T07:25:32.787Z,99224.56
2023-03-21T07:27:59.560Z,99178.06
2023-03-21T07:30:26.389Z,99218.69
2023-03-21T07:32:53.544Z,99226.31
2023-03-21T07:35:20.533Z,99261.19
2023-03-21T07:37:47.243Z,99241.38
2023-03-21T07:40:14.068Z,99176.59
2023-03-21T07:42:41.538Z,99260.25
2023-03-21T07:45:09.815Z,99239.44
2023-03-21T07:47:37.048Z,99244.91
2023-03-21T07:50:04.656Z,99217.53
2023-03-21T07:52:32.039Z,99255.47
2023-03-21T07:54:59.125Z,99217.94
2023-03-21T07:57:26.236Z,99216.97
2023-03-21T07:59:53.006Z,99225.03
2023-03-21T08:02:19.774Z,99229.03
2023-03-21T08:04:46.892Z,99211.47
2023-03-21T08:07:13.979Z,99252.94
2023-03-21T08:09:40.933Z,99178.78
2023-03-21T08:12:10.809Z,99221.75
2023-03-21T08:14:37.900Z,99224.13
2023-03-21T08:17:05.898Z,99244.97
2023-03-21T08:19:32.829Z,99184.28
2023-03-21T08:21:59.998Z,99198.19
2023-03-21T08:24:28.285Z,99203.31
2023-03-21T08:26:54.992Z,99194.63
2023-03-21T08:29:21.993Z,99210.66
2023-03-21T08:31:48.917Z,99200.56
2023-03-21T08:34:15.658Z,99187.69
2023-03-21T08:36:42.330Z,99174.41
2023-03-21T08:39:09.007Z,99178.97
2023-03-21T08:41:37.486Z,99213.72
2023-03-21T08:44:06.465Z,99203.28
2023-03-21T08:46:33.780Z,99164.56
2023-03-21T08:49:00.497Z,99187.28
2023-03-21T08:51:27.375Z,99196.66
2023-03-21T08:53:54.097Z,99180.53
2023-03-21T08:56:20.770Z,99192.28
2023-03-21T08:58:47.568Z,99166.22
2023-03-21T09:01:15.947Z,99147.97
2023-03-21T09:03:43.639Z,99190.75
2023-03-21T09:06:14.307Z,99204.91
2023-03-21T09:08:42.158Z,99205.44
2023-03-21T09:11:10.444Z,99167.56
2023-03-21T09:13:37.242Z,99152.75
2023-03-21T09:16:05.356Z,99187.47
2023-03-21T09:18:49.000Z,99160.53
2023-03-21T09:21:18.550Z,99184.22
2023-03-21T09:23:47.122Z,99189.34
2023-03-21T09:26:14.001Z,99143.53
2023-03-21T09:28:40.971Z,99170.47
2023-03-21T09:31:12.368Z,99160.75
2023-03-21T09:33:42.721Z,99182.28
2023-03-21T09:36:14.512Z,99161.38
2023-03-21T09:38:45.139Z,99129.97
2023-03-21T09:41:17.758Z,99101.22
2023-03-21T09:44:23.008Z,99166.69
2023-03-21T09:46:58.437Z,99160.22
2023-03-21T09:49:32.984Z,99157.59
2023-03-21T09:52:03.675Z,99115.03
2023-03-21T09:54:33.933Z,99149.97
2023-03-21T09:57:24.948Z,99127.63
2023-03-21T09:59:54.955Z,99161.09
2023-03-21T10:02:47.262Z,99137.66
2023-03-21T10:05:27.194Z,99155.50
2023-03-21T10:08:09.008Z,99152.16
2023-03-21T10:10:46.518Z,99121.63
2023-03-21T10:13:35.494Z,99139.22
2023-03-21T10:16:14.265Z,99075.63
2023-03-21T10:18:42.989Z,99127.19
2023-03-21T10:21:37.365Z,99140.50
2023-03-21T10:24:04.101Z,99135.50
2023-03-21T10:26:31.066Z,99082.25
2023-03-21T10:29:03.484Z,99133.69
2023-03-21T10:31:31.236Z,99139.22
2023-03-21T10:34:02.644Z,99089.81
2023-03-21T10:36:32.929Z,99116.03
2023-03-21T10:39:05.222Z,99118.47
2023-03-21T10:41:32.678Z,99118.13
2023-03-21T10:44:11.936Z,99124.38
2023-03-21T10:46:38.815Z,99070.31
2023-03-21T10:49:08.203Z,99075.81
2023-03-21T10:51:37.961Z,99086.69
2023-03-21T10:54:13.666Z,99100.31
2023-03-21T10:56:53.549Z,99107.88
2023-03-21T10:59:23.425Z,99080.75
2023-03-21T11:01:52.458Z,99066.94
2023-03-21T11:04:27.949Z,99124.75
2023-03-21T11:06:57.732Z,99052.03
2023-03-21T11:09:27.959Z,99081.91
2023-03-21T11:12:10.576Z,99106.81
2023-03-21T11:14:41.757Z,99067.69
2023-03-21T11:17:23.853Z,99044.00
2023-03-21T11:19:58.508Z,99093.41
2023-03-21T11:22:30.521Z,99083.91
2023-03-21T11:25:01.097Z,99074.97
2023-03-21T11:27:30.541Z,99059.69
2023-03-21T11:30:00.046Z,99089.56
2023-03-21T11:32:38.620Z,99088.50
2023-03-21T11:35:19.882Z,99063.25
2023-03-21T11:37:53.295Z,99048.22
2023-03-21T11:40:20.176Z,99040.84
2023-03-21T11:42:53.001Z,99028.66
2023-03-21T11:45:24.072Z,99060.72
2023-03-21T11:47:54.005Z,99045.06
2023-03-21T11:50:42.857Z,99053.72
2023-03-21T11:53:15.553Z,99061.44
2023-03-21T11:56:02.010Z,99050.38
2023-03-21T11:58:38.584Z,99074.19
2023-03-21T12:01:29.946Z,99070.00
2023-03-21T12:04:27.409Z,99086.63
2023-03-21T12:07:00.763Z,99054.75
2023-03-21T12:09:27.428Z,99080.09
2023-03-21T12:12:37.919Z,99068.63
2023-03-21T12:15:06.223Z,99067.66
2023-03-21T12:17:57.760Z,99063.31
2023-03-21T12:20:52.793Z,99023.81
2023-03-21T12:23:25.629Z,99038.53
2023-03-21T12:26:10.658Z,99061.88
2023-03-21T12:28:50.330Z,99029.84
2023-03-21T12:31:45.217Z,99058.94
2023-03-21T12:34:19.831Z,99060.47
2023-03-21T12:37:08.325Z,99047.16
2023-03-21T12:39:40.528Z,98986.41
2023-03-21T12:42:11.835Z,99049.03
2023-03-21T12:44:44.615Z,99027.50
2023-03-21T12:47:17.909Z,99004.41
2023-03-21T12:49:55.436Z,99027.44
2023-03-21T12:52:27.455Z,99036.94
2023-03-21T12:55:01.976Z,98982.28
2023-03-21T12:58:04.453Z,99038.81
2023-03-21T13:00:49.882Z,99037.94
2023-03-21T13:03:19.597Z,99039.81
2023-03-21T13:05:58.410Z,99010.78
2023-03-21T13:08:46.721Z,99016.22
2023-03-21T13:11:17.972Z,98993.84
2023-03-21T13:14:00.178Z,99012.09
2023-03-21T13:16:29.523Z,98935.44
2023-03-21T13:19:14.540Z,99013.84
2023-03-21T13:21:44.146Z,98990.03
2023-03-21T13:24:29.140Z,98990.06
2023-03-21T13:27:02.580Z,98986.88
2023-03-21T13:29:33.470Z,98960.94
2023-03-21T13:32:31.284Z,98986.66
2023-03-21T13:35:30.061Z,98996.19
2023-03-21T13:38:17.420Z,98915.59
2023-03-21T13:40:48.682Z,98984.09
2023-03-21T13:43:43.311Z,98981.13
2023-03-21T13:46:26.802Z,98967.00
2023-03-21T13:48:58.752Z,98965.72
2023-03-21T13:51:29.303Z,98970.69
2023-03-21T13:54:04.565Z,98955.28
2023-03-21T13:56:52.713Z,98925.94
2023-03-21T13:59:38.130Z,98956.19
2023-03-21T14:02:23.333Z,98962.38
2023-03-21T14:05:21.465Z,98964.09
2023-03-21T14:07:52.847Z,98960.50
2023-03-21T14:10:31.230Z,98944.78
2023-03-21T14:12:59.112Z,98918.72
2023-03-21T14:15:56.428Z,98930.63
2023-03-21T14:21:24.946Z,98926.09
2023-03-21T14:24:04.202Z,98962.38
2023-03-21T14:26:46.004Z,98955.00
2023-03-21T14:29:35.061Z,98942.59
2023-03-21T14:32:02.852Z,98916.75
2023-03-21T14:34:33.500Z,98920.09
2023-03-21T14:37:00.437Z,98918.47
2023-03-21T14:39:30.914Z,98948.00
2023-03-21T14:42:05.155Z,98901.25
2023-03-21T14:44:56.201Z,98950.84
2023-03-21T14:47:26.411Z,98937.81
2023-03-21T14:49:53.752Z,98921.16
2023-03-21T14:52:31.809Z,98942.28
2023-03-21T14:55:00.105Z,98903.53
2023-03-21T14:57:31.061Z,98952.59
2023-03-21T15:00:02.059Z,98947.59
2023-03-21T15:02:34.629Z,98886.47
2023-03-21T15:05:38.004Z,98945.34
2023-03-21T15:08:15.621Z,98943.91
2023-03-21T15:11:05.954Z,98899.69
2023-03-21T15:13:34.654Z,98942.28
2023-03-21T15:16:01.595Z,98892.28
2023-03-21T15:18:33.569Z,98908.91
2023-03-21T15:21:10.569Z,98906.75
2023-03-21T15:23:42.477Z,98917.00
2023-03-21T15:26:17.366Z,98902.50
2023-03-21T15:28:46.995Z,98898.84
2023-03-21T15:31:20.561Z,98908.06
2023-03-21T15:33:49.199Z,98891.75
2023-03-21T15:36:22.338Z,98879.03
2023-03-21T15:38:50.015Z,98887.94
2023-03-21T15:41:19.455Z,98888.13
2023-03-21T15:44:01.735Z,98878.28
2023-03-21T15:46:45.511Z,98875.47
2023-03-21T15:49:15.627Z,98868.28
2023-03-21T15:51:46.297Z,98860.53
2023-03-21T15:54:41.291Z,98844.00
2023-03-21T15:57:21.780Z,98844.41
2023-03-21T15:59:49.127Z,98842.78
2023-03-21T16:02:24.634Z,98797.22
2023-03-21T16:04:59.852Z,98837.97
2023-03-21T16:07:27.015Z,98800.44
2023-03-21T16:10:00.510Z,98836.66
2023-03-21T16:12:27.765Z,98824.38
2023-03-21T16:14:55.636Z,98799.41
2023-03-21T16:17:39.813Z,98829.34
2023-03-21T16:20:35.763Z,98828.72
2023-03-21T16:23:02.984Z,98827.44
2023-03-21T16:25:30.687Z,98833.81
2023-03-21T16:27:57.493Z,98789.38
2023-03-21T16:30:24.883Z,98833.44
2023-03-21T16:32:51.999Z,98814.69
2023-03-21T16:35:18.850Z,98789.25
2023-03-21T16:37:48.437Z,98798.91
2023-03-21T16:40:24.304Z,98833.91
2023-03-21T16:42:51.127Z,98806.09
2023-03-21T16:45:17.951Z,98798.47
2023-03-21T16:47:45.533Z,98794.88
2023-03-21T16:50:28.523Z,98777.22
2023-03-21T16:52:56.344Z,98760.38
2023-03-21T16:55:23.404Z,98754.78
2023-03-21T16:57:53.876Z,98747.75
2023-03-21T17:00:24.383Z,98759.56
2023-03-21T17:02:53.556Z,98768.00
2023-03-21T17:05:27.749Z,98775.44
2023-03-21T17:07:55.044Z,98777.19
2023-03-21T17:10:26.610Z,98815.41
2023-03-21T17:12:53.602Z,98791.53
2023-03-21T17:15:20.972Z,98810.66
2023-03-21T17:17:50.157Z,98749.16
2023-03-21T17:20:21.495Z,98772.31
2023-03-21T17:22:48.940Z,98807.16
2023-03-21T17:25:17.454Z,98804.81
2023-03-21T17:27:44.910Z,98793.19
2023-03-21T17:30:22.725Z,98809.22
2023-03-21T17:32:50.958Z,98768.00
2023-03-21T17:35:18.179Z,98785.44
2023-03-21T17:37:50.482Z,98791.41
2023-03-21T17:40:23.017Z,98803.09
2023-03-21T17:42:51.623Z,98765.22
2023-03-21T17:45:19.383Z,98798.72
2023-03-21T17:47:46.887Z,98796.03
2023-03-21T17:50:21.165Z,98796.03
2023-03-21T17:52:50.640Z,98796.00
2023-03-21T17:55:19.710Z,98792.22
2023-03-21T17:57:47.111Z,98744.78
2023-03-21T18:00:25.881Z,98784.19
2023-03-21T18:02:53.338Z,98729.13
2023-03-21T18:05:21.634Z,98740.53
2023-03-21T18:10:37.157Z,98761.53
2023-03-21T18:13:04.024Z,98747.13
2023-03-21T18:15:31.215Z,98741.63
2023-03-21T18:17:58.559Z,98763.22
2023-03-21T18:20:49.870Z,98745.66
2023-03-21T18:23:15.507Z,98722.44
2023-03-21T18:25:42.252Z,98745.44
2023-03-21T18:28:12.009Z,98712.66
2023-03-21T18:33:27.555Z,98735.44
2023-03-21T18:35:59.100Z,98746.38
2023-03-21T18:38:27.850Z,98678.41
2023-03-21T18:40:55.490Z,98696.06
2023-03-21T18:46:09.348Z,98691.69
2023-03-21T18:48:36.724Z,98698.41
2023-03-21T18:51:04.214Z,98730.75
2023-03-21T18:53:31.102Z,98726.81
2023-03-21T18:55:57.903Z,98649.22
2023-03-21T18:58:25.653Z,98653.03
2023-03-21T19:00:54.038Z,98682.84
2023-03-21T19:03:35.211Z,98715.91
2023-03-21T19:06:04.159Z,98658.41
2023-03-21T19:08:31.273Z,98710.34
2023-03-21T19:11:03.333Z,98675.56
2023-03-21T19:13:33.676Z,98681.00
2023-03-21T19:16:02.430Z,98681.72
2023-03-21T19:18:53.018Z,98677.56
2023-03-21T19:21:19.385Z,98715.19
2023-03-21T19:26:33.446Z,98692.50
2023-03-21T19:29:00.115Z,98677.69
2023-03-21T19:31:27.303Z,98669.50
2023-03-21T19:33:54.130Z,98656.13
2023-03-21T19:36:22.676Z,98645.69
2023-03-21T19:38:50.636Z,98667.13
2023-03-21T19:41:18.297Z,98672.13
2023-03-21T19:43:53.623Z,98675.09
2023-03-21T19:46:24.972Z,98649.44
2023-03-21T19:48:56.122Z,98653.28
2023-03-21T19:51:28.823Z,98663.19
2023-03-21T19:53:57.626Z,98654.94
2023-03-21T19:56:26.984Z,98607.94
2023-03-21T19:58:55.327Z,98593.78
2023-03-21T20:01:23.113Z,98614.75
2023-03-21T20:03:50.054Z,98626.91
2023-03-21T20:06:16.865Z,98601.72
2023-03-21T20:09:13.729Z,98632.41
2023-03-21T20:11:30.341Z,98602.00
2023-03-21T20:13:58.485Z,98592.16
2023-03-21T20:16:25.373Z,98613.31
2023-03-21T20:18:52.648Z,98584.91
2023-03-21T20:21:25.428Z,98585.06
2023-03-21T20:23:52.413Z,98625.19
2023-03-21T20:26:19.592Z,98578.50
2023-03-21T20:28:56.461Z,98590.72
2023-03-21T20:31:30.850Z,98591.75
2023-03-21T20:33:57.671Z,98561.47
2023-03-21T20:36:38.795Z,98566.13
2023-03-21T20:39:06.848Z,98597.31
2023-03-21T20:41:33.655Z,98513.19
2023-03-21T20:46:49.940Z,98559.97
2023-03-21T20:49:16.854Z,98514.78
2023-03-21T20:54:31.632Z,98547.63
2023-03-21T20:56:58.325Z,98549.13
2023-03-21T20:59:27.915Z,98515.09
2023-03-21T21:01:57.554Z,98494.94
2023-03-21T21:04:44.195Z,98540.72
2023-03-21T21:07:15.950Z,98518.44
2023-03-21T21:09:44.746Z,98508.44
2023-03-21T21:12:14.009Z,98554.28
2023-03-21T21:14:41.860Z,98560.59
2023-03-21T21:19:56.897Z,98533.00
2023-03-21T21:22:23.658Z,98531.78
2023-03-21T21:24:50.353Z,98499.53
2023-03-21T21:27:17.121Z,98501.53
2023-03-21T21:29:47.767Z,98491.44
2023-03-21T21:32:17.120Z,98462.06
2023-03-21T21:34:44.106Z,98495.28
2023-03-21T21:37:10.786Z,98472.28
2023-03-21T21:39:38.693Z,98535.47
2023-03-21T21:42:05.856Z,98521.59
2023-03-21T21:44:32.590Z,98500.00
2023-03-21T21:46:59.515Z,98497.13
2023-03-21T21:49:27.101Z,98451.38
2023-03-21T21:51:53.867Z,98496.88
2023-03-21T21:54:20.581Z,98448.69
2023-03-21T21:56:54.295Z,98501.75
2023-03-21T21:59:22.388Z,98461.03
2023-03-21T22:01:51.433Z,98447.97
2023-03-21T22:04:27.944Z,98485.13
2023-03-21T22:06:57.731Z,98435.25
2023-03-21T22:09:24.421Z,98425.63
2023-03-21T22:11:51.482Z,98430.91
2023-03-21T22:14:18.191Z,98428.91
2023-03-21T22:16:46.850Z,98441.94
2023-03-21T22:19:13.784Z,98461.66
2023-03-21T22:21:40.742Z,98441.97
2023-03-21T22:24:07.584Z,98437.38
2023-03-21T22:26:34.413Z,98407.69
2023-03-21T22:29:01.817Z,98402.59
2023-03-21T22:31:28.724Z,98354.44
2023-03-21T22:33:55.543Z,98376.03
2023-03-21T22:36:22.201Z,98394.84
2023-03-21T22:38:48.885Z,98381.00
2023-03-21T22:41:15.643Z,98407.03
2023-03-21T22:43:42.364Z,98369.13
2023-03-21T22:46:09.140Z,98376.59
2023-03-21T22:48:36.057Z,98338.63
2023-03-21T22:51:02.780Z,98351.47
2023-03-21T22:53:29.645Z,98354.72
2023-03-21T22:55:56.384Z,98318.06
2023-03-21T22:58:23.677Z,98381.31
2023-03-21T23:00:50.504Z,98315.41
2023-03-21T23:03:17.457Z,98343.22
2023-03-21T23:05:45.768Z,98353.75
2023-03-21T23:08:13.452Z,98319.03
2023-03-21T23:10:43.917Z,98313.16
2023-03-21T23:13:10.968Z,98320.28
2023-03-21T23:15:41.221Z,98297.28
2023-03-21T23:18:08.123Z,98277.09
2023-03-21T23:20:35.108Z,98299.13
2023-03-21T23:23:02.159Z,98309.81
2023-03-21T23:25:34.179Z,98260.97
2023-03-21T23:28:01.036Z,98252.53
2023-03-21T23:30:27.780Z,98257.41
2023-03-21T23:32:54.477Z,98226.53
2023-03-21T23:35:21.431Z,98262.22
2023-03-21T23:37:50.246Z,98217.56
2023-03-21T23:40:17.037Z,98185.97
2023-03-21T23:42:43.786Z,98188.38
2023-03-21T23:45:11.146Z,98216.69
2023-03-21T23:47:39.338Z,98179.56
2023-03-21T23:50:07.926Z,98141.91
2023-03-21T23:52:34.748Z,98156.63
2023-03-21T23:55:01.449Z,98151.22
2023-03-21T23:57:28.198Z,98160.44
2023-03-21T23:59:55.907Z,98136.72
